Mr Aries — V7ML4 — position and weather

sailwx.info

Track history (hours):
 
Tides and Currents Weather Stations Pressure Air Temp Water Temp Dewpoint Dewpoint Depression Visibility Wind Speed Wind Dir Waves Ship Positions

Mr Aries

Last reported at 2016-May-22 19:33 UTC. Time now 2016-May-30 01:03 UTC.
Position N 40°30' W 073°58'.

Length 183 m; draft 9.7 m.

Type: Ship. MMSI: 538002869.

Date/timePositionNaut miles runAvg speedWind from/ knotsBaromVisibWave heightAir tempDewpointWater temp
2016-May-22 19:33N 40°30' W 073°58'9 8.8
2016-May-22 18:34N 40°38' W 074°03'0 0.1
2016-May-22 17:28N 40°38' W 074°03'0 0.0
2016-May-22 16:31N 40°38' W 074°03'0 0.1
2016-May-22 15:31N 40°38' W 074°03'0 0.1
2016-May-22 14:31N 40°38' W 074°03'0 0.0
2016-May-22 13:31N 40°38' W 074°03'0 0.0
2016-May-22 12:31N 40°38' W 074°03'0 0.1
2016-May-22 11:31N 40°38' W 074°03'0 0.1
2016-May-22 09:22N 40°38' W 074°03'0 0.1
2016-May-22 08:31N 40°38' W 074°03'0 0.0
2016-May-22 07:31N 40°38' W 074°03'0 0.1
2016-May-22 06:34N 40°38' W 074°03'7 6.9
2016-May-22 05:33N 40°38' W 074°12'2 0.1
2016-May-21 00:33N 40°36' W 074°12'4 3.9
2016-May-20 23:33N 40°39' W 074°08'4 3.6
2016-May-20 22:34N 40°38' W 074°04'0 0.0
2016-May-20 21:33N 40°38' W 074°04'0 0.2
2016-May-20 20:33N 40°38' W 074°04'0 0.1
2016-May-20 19:33N 40°38' W 074°04'0 0.0
2016-May-20 18:33N 40°38' W 074°04'0 0.0
2016-May-20 17:33N 40°38' W 074°04'0 0.0
2016-May-20 16:33N 40°38' W 074°04'0 0.0
2016-May-20 15:33N 40°38' W 074°04'0 0.0
2016-May-20 14:33N 40°38' W 074°04'0 0.2
2016-May-20 13:33N 40°38' W 074°04'0 0.0
2016-May-20 12:33N 40°38' W 074°04'0 0.0
2016-May-20 11:30N 40°38' W 074°04'0 0.0
2016-May-20 10:27N 40°38' W 074°04'0 0.1
2016-May-20 09:33N 40°38' W 074°04'0 0.1
2016-May-20 08:33N 40°38' W 074°04'0 0.1
2016-May-20 07:33N 40°38' W 074°04'0 0.0
2016-May-20 06:33N 40°38' W 074°04'0 0.0
2016-May-20 05:33N 40°38' W 074°04'0 0.0
2016-May-20 04:33N 40°38' W 074°04'0 0.0
2016-May-20 03:33N 40°38' W 074°04'0 0.0
2016-May-20 02:33N 40°38' W 074°04'0 0.3
2016-May-20 01:33N 40°38' W 074°04'5 5.3
2016-May-20 00:33N 40°33' W 074°01'8 7.8
2016-May-19 23:33N 40°27' W 073°54'10 8.4
2016-May-19 22:20N 40°30' W 074°07'6 0.3
2016-May-19 03:28N 40°29' W 073°60'  
Track history (hours):
 
Tides and Currents Weather Stations Pressure Air Temp Water Temp Dewpoint Dewpoint Depression Visibility Wind Speed Wind Dir Waves Ship Positions

Mr Aries

Last reported at 2016-May-22 19:33 UTC. Time now 2016-May-30 01:03 UTC.
Position N 40°30' W 073°58'.

Length 183 m; draft 9.7 m.

Type: Ship. MMSI: 538002869.

Date/timePositionNaut miles runAvg speedWind from/ knotsBaromVisibWave heightAir tempDewpointWater temp
2016-May-22 19:33N 40°30' W 073°58'9 8.8
2016-May-22 18:34N 40°38' W 074°03'0 0.1
2016-May-22 17:28N 40°38' W 074°03'0 0.0
2016-May-22 16:31N 40°38' W 074°03'0 0.1
2016-May-22 15:31N 40°38' W 074°03'0 0.1
2016-May-22 14:31N 40°38' W 074°03'0 0.0
2016-May-22 13:31N 40°38' W 074°03'0 0.0
2016-May-22 12:31N 40°38' W 074°03'0 0.1
2016-May-22 11:31N 40°38' W 074°03'0 0.1
2016-May-22 09:22N 40°38' W 074°03'0 0.1
2016-May-22 08:31N 40°38' W 074°03'0 0.0
2016-May-22 07:31N 40°38' W 074°03'0 0.1
2016-May-22 06:34N 40°38' W 074°03'7 6.9
2016-May-22 05:33N 40°38' W 074°12'2 0.1
2016-May-21 00:33N 40°36' W 074°12'4 3.9
2016-May-20 23:33N 40°39' W 074°08'4 3.6
2016-May-20 22:34N 40°38' W 074°04'0 0.0
2016-May-20 21:33N 40°38' W 074°04'0 0.2
2016-May-20 20:33N 40°38' W 074°04'0 0.1
2016-May-20 19:33N 40°38' W 074°04'0 0.0
2016-May-20 18:33N 40°38' W 074°04'0 0.0
2016-May-20 17:33N 40°38' W 074°04'0 0.0
2016-May-20 16:33N 40°38' W 074°04'0 0.0
2016-May-20 15:33N 40°38' W 074°04'0 0.0
2016-May-20 14:33N 40°38' W 074°04'0 0.2
2016-May-20 13:33N 40°38' W 074°04'0 0.0
2016-May-20 12:33N 40°38' W 074°04'0 0.0
2016-May-20 11:30N 40°38' W 074°04'0 0.0
2016-May-20 10:27N 40°38' W 074°04'0 0.1
2016-May-20 09:33N 40°38' W 074°04'0 0.1
2016-May-20 08:33N 40°38' W 074°04'0 0.1
2016-May-20 07:33N 40°38' W 074°04'0 0.0
2016-May-20 06:33N 40°38' W 074°04'0 0.0
2016-May-20 05:33N 40°38' W 074°04'0 0.0
2016-May-20 04:33N 40°38' W 074°04'0 0.0
2016-May-20 03:33N 40°38' W 074°04'0 0.0
2016-May-20 02:33N 40°38' W 074°04'0 0.3
2016-May-20 01:33N 40°38' W 074°04'5 5.3
2016-May-20 00:33N 40°33' W 074°01'8 7.8
2016-May-19 23:33N 40°27' W 073°54'10 8.4
2016-May-19 22:20N 40°30' W 074°07'6 0.3
2016-May-19 03:28N 40°29' W 073°60'  

Dump ship's entire track history